sensor_id;sensor_type;location;lat;lon;timestamp;temperature;humidity
56428;DHT22;42331;53.578;9.760;2024-01-30T00:02:27;6.20;99.90
56428;DHT22;42331;53.578;9.760;2024-01-30T00:05:05;6.10;99.90
56428;DHT22;42331;53.578;9.760;2024-01-30T00:07:50;6.20;99.90
56428;DHT22;42331;53.578;9.760;2024-01-30T00:10:33;6.10;99.90
56428;DHT22;42331;53.578;9.760;2024-01-30T00:13:12;6.10;99.90
56428;DHT22;42331;53.578;9.760;2024-01-30T00:15:49;6.10;99.90
56428;DHT22;42331;53.578;9.760;2024-01-30T00:18:30;6.10;99.90
56428;DHT22;42331;53.578;9.760;2024-01-30T00:21:30;6.00;99.90
56428;DHT22;42331;53.578;9.760;2024-01-30T00:24:11;6.00;99.90
56428;DHT22;42331;53.578;9.760;2024-01-30T00:27:12;6.00;99.90
56428;DHT22;42331;53.578;9.760;2024-01-30T00:29:53;5.90;99.90
56428;DHT22;42331;53.578;9.760;2024-01-30T00:32:45;5.80;99.90
56428;DHT22;42331;53.578;9.760;2024-01-30T00:35:42;5.70;99.90
56428;DHT22;42331;53.578;9.760;2024-01-30T00:38:40;5.70;99.90
56428;DHT22;42331;53.578;9.760;2024-01-30T00:41:58;5.60;99.90
56428;DHT22;42331;53.578;9.760;2024-01-30T00:44:41;5.70;99.90
56428;DHT22;42331;53.578;9.760;2024-01-30T00:47:21;5.60;99.90
56428;DHT22;42331;53.578;9.760;2024-01-30T00:49:52;5.60;99.90
56428;DHT22;42331;53.578;9.760;2024-01-30T00:52:26;5.50;99.90
56428;DHT22;42331;53.578;9.760;2024-01-30T00:54:57;5.50;99.90
56428;DHT22;42331;53.578;9.760;2024-01-30T00:57:38;5.40;99.90
56428;DHT22;42331;53.578;9.760;2024-01-30T01:00:40;5.40;99.90
56428;DHT22;42331;53.578;9.760;2024-01-30T01:03:17;5.40;99.90
56428;DHT22;42331;53.578;9.760;2024-01-30T01:06:39;5.40;99.90
56428;DHT22;42331;53.578;9.760;2024-01-30T01:13:23;5.40;99.90
56428;DHT22;42331;53.578;9.760;2024-01-30T01:16:29;5.30;99.90
56428;DHT22;42331;53.578;9.760;2024-01-30T01:19:05;5.30;99.90
56428;DHT22;42331;53.578;9.760;2024-01-30T01:21:38;5.30;99.90
56428;DHT22;42331;53.578;9.760;2024-01-30T01:24:09;5.30;99.90
56428;DHT22;42331;53.578;9.760;2024-01-30T01:26:40;5.30;99.90
56428;DHT22;42331;53.578;9.760;2024-01-30T01:29:11;5.20;99.90
56428;DHT22;42331;53.578;9.760;2024-01-30T01:31:42;5.20;99.90
56428;DHT22;42331;53.578;9.760;2024-01-30T01:34:16;5.20;99.90
56428;DHT22;42331;53.578;9.760;2024-01-30T01:36:47;5.20;99.90
56428;DHT22;42331;53.578;9.760;2024-01-30T01:39:20;5.20;99.90
56428;DHT22;42331;53.578;9.760;2024-01-30T01:41:59;5.10;99.90
56428;DHT22;42331;53.578;9.760;2024-01-30T01:44:32;5.10;99.90
56428;DHT22;42331;53.578;9.760;2024-01-30T01:47:05;5.10;99.90
56428;DHT22;42331;53.578;9.760;2024-01-30T01:49:47;5.10;99.90
56428;DHT22;42331;53.578;9.760;2024-01-30T01:52:20;5.10;99.90
56428;DHT22;42331;53.578;9.760;2024-01-30T01:54:54;5.10;99.90
56428;DHT22;42331;53.578;9.760;2024-01-30T01:57:25;5.10;99.90
56428;DHT22;42331;53.578;9.760;2024-01-30T01:59:58;5.20;99.90
56428;DHT22;42331;53.578;9.760;2024-01-30T02:02:35;5.30;99.90
56428;DHT22;42331;53.578;9.760;2024-01-30T02:05:08;5.30;99.90
56428;DHT22;42331;53.578;9.760;2024-01-30T02:07:46;5.30;99.90
56428;DHT22;42331;53.578;9.760;2024-01-30T02:10:29;5.30;99.90
56428;DHT22;42331;53.578;9.760;2024-01-30T02:13:07;5.40;99.90
56428;DHT22;42331;53.578;9.760;2024-01-30T02:15:43;5.40;99.90
56428;DHT22;42331;53.578;9.760;2024-01-30T02:18:23;5.50;99.90
56428;DHT22;42331;53.578;9.760;2024-01-30T02:21:18;5.40;99.90
56428;DHT22;42331;53.578;9.760;2024-01-30T02:23:54;5.40;99.90
56428;DHT22;42331;53.578;9.760;2024-01-30T02:27:06;5.50;99.90
56428;DHT22;42331;53.578;9.760;2024-01-30T02:29:40;5.50;99.90
56428;DHT22;42331;53.578;9.760;2024-01-30T02:32:11;5.50;99.90
56428;DHT22;42331;53.578;9.760;2024-01-30T02:35:12;5.40;99.90
56428;DHT22;42331;53.578;9.760;2024-01-30T02:37:48;5.40;99.90
56428;DHT22;42331;53.578;9.760;2024-01-30T02:53:40;5.20;99.90
56428;DHT22;42331;53.578;9.760;2024-01-30T02:56:16;5.20;99.90
56428;DHT22;42331;53.578;9.760;2024-01-30T02:58:47;5.20;99.90
56428;DHT22;42331;53.578;9.760;2024-01-30T03:01:18;5.10;99.90
56428;DHT22;42331;53.578;9.760;2024-01-30T03:07:12;5.20;99.90
56428;DHT22;42331;53.578;9.760;2024-01-30T03:09:57;5.20;99.90
56428;DHT22;42331;53.578;9.760;2024-01-30T03:12:34;5.10;99.90
56428;DHT22;42331;53.578;9.760;2024-01-30T03:15:05;5.10;99.90
56428;DHT22;42331;53.578;9.760;2024-01-30T03:17:47;5.10;99.90
56428;DHT22;42331;53.578;9.760;2024-01-30T03:20:21;5.00;99.90
56428;DHT22;42331;53.578;9.760;2024-01-30T03:22:54;5.00;99.90
56428;DHT22;42331;53.578;9.760;2024-01-30T03:25:25;4.90;99.90
56428;DHT22;42331;53.578;9.760;2024-01-30T03:27:56;4.90;99.90
56428;DHT22;42331;53.578;9.760;2024-01-30T03:30:32;5.00;99.90
56428;DHT22;42331;53.578;9.760;2024-01-30T03:33:03;5.00;99.90
56428;DHT22;42331;53.578;9.760;2024-01-30T03:35:55;5.10;99.90
56428;DHT22;42331;53.578;9.760;2024-01-30T03:38:29;5.00;99.90
56428;DHT22;42331;53.578;9.760;2024-01-30T03:41:20;5.10;99.90
56428;DHT22;42331;53.578;9.760;2024-01-30T03:43:54;5.10;99.90
56428;DHT22;42331;53.578;9.760;2024-01-30T03:46:25;5.00;99.90
56428;DHT22;42331;53.578;9.760;2024-01-30T03:48:58;5.00;99.90
56428;DHT22;42331;53.578;9.760;2024-01-30T03:51:36;5.00;99.90
56428;DHT22;42331;53.578;9.760;2024-01-30T03:54:09;5.00;99.90
56428;DHT22;42331;53.578;9.760;2024-01-30T03:57:13;4.90;99.90
56428;DHT22;42331;53.578;9.760;2024-01-30T04:00:12;4.90;99.90
56428;DHT22;42331;53.578;9.760;2024-01-30T04:02:56;5.00;99.90
56428;DHT22;42331;53.578;9.760;2024-01-30T04:05:39;4.90;99.90
56428;DHT22;42331;53.578;9.760;2024-01-30T04:08:21;4.90;99.90
56428;DHT22;42331;53.578;9.760;2024-01-30T04:14:02;4.80;99.90
56428;DHT22;42331;53.578;9.760;2024-01-30T04:16:33;4.80;99.90
56428;DHT22;42331;53.578;9.760;2024-01-30T04:19:04;4.70;99.90
56428;DHT22;42331;53.578;9.760;2024-01-30T04:21:35;4.70;99.90
56428;DHT22;42331;53.578;9.760;2024-01-30T04:24:50;4.80;99.90
56428;DHT22;42331;53.578;9.760;2024-01-30T04:27:42;4.70;99.90
56428;DHT22;42331;53.578;9.760;2024-01-30T04:30:16;4.70;99.90
56428;DHT22;42331;53.578;9.760;2024-01-30T04:32:47;4.70;99.90
56428;DHT22;42331;53.578;9.760;2024-01-30T04:35:20;4.70;99.90
56428;DHT22;42331;53.578;9.760;2024-01-30T04:41:08;4.70;99.90
56428;DHT22;42331;53.578;9.760;2024-01-30T04:43:39;4.70;99.90
56428;DHT22;42331;53.578;9.760;2024-01-30T04:46:12;4.70;99.90
56428;DHT22;42331;53.578;9.760;2024-01-30T04:53:09;4.70;99.90
56428;DHT22;42331;53.578;9.760;2024-01-30T04:55:43;4.70;99.90
56428;DHT22;42331;53.578;9.760;2024-01-30T04:58:14;4.70;99.90
56428;DHT22;42331;53.578;9.760;2024-01-30T05:01:01;4.70;99.90
56428;DHT22;42331;53.578;9.760;2024-01-30T05:07:06;4.80;99.90
56428;DHT22;42331;53.578;9.760;2024-01-30T05:09:49;4.90;99.90
56428;DHT22;42331;53.578;9.760;2024-01-30T05:12:22;4.90;99.90
56428;DHT22;42331;53.578;9.760;2024-01-30T05:15:01;5.00;99.90
56428;DHT22;42331;53.578;9.760;2024-01-30T05:20:33;5.00;99.90
56428;DHT22;42331;53.578;9.760;2024-01-30T05:23:18;5.00;99.90
56428;DHT22;42331;53.578;9.760;2024-01-30T05:25:49;4.90;99.90
56428;DHT22;42331;53.578;9.760;2024-01-30T05:28:25;5.00;99.90
56428;DHT22;42331;53.578;9.760;2024-01-30T05:30:58;5.00;99.90
56428;DHT22;42331;53.578;9.760;2024-01-30T05:33:43;5.00;99.90
56428;DHT22;42331;53.578;9.760;2024-01-30T05:36:30;5.10;99.90
56428;DHT22;42331;53.578;9.760;2024-01-30T05:39:03;5.10;99.90
56428;DHT22;42331;53.578;9.760;2024-01-30T05:41:54;5.10;99.90
56428;DHT22;42331;53.578;9.760;2024-01-30T05:44:42;5.10;99.90
56428;DHT22;42331;53.578;9.760;2024-01-30T05:51:56;5.20;99.90
56428;DHT22;42331;53.578;9.760;2024-01-30T05:54:27;5.20;99.90
56428;DHT22;42331;53.578;9.760;2024-01-30T06:00:29;5.30;99.90
56428;DHT22;42331;53.578;9.760;2024-01-30T06:03:40;5.40;99.90
56428;DHT22;42331;53.578;9.760;2024-01-30T06:06:13;5.40;99.90
56428;DHT22;42331;53.578;9.760;2024-01-30T06:09:00;5.40;99.90
56428;DHT22;42331;53.578;9.760;2024-01-30T06:11:34;5.40;99.90
56428;DHT22;42331;53.578;9.760;2024-01-30T06:14:10;5.50;99.90
56428;DHT22;42331;53.578;9.760;2024-01-30T06:16:49;5.50;99.90
56428;DHT22;42331;53.578;9.760;2024-01-30T06:19:20;5.50;99.90
56428;DHT22;42331;53.578;9.760;2024-01-30T06:21:56;5.60;99.90
56428;DHT22;42331;53.578;9.760;2024-01-30T06:24:39;5.50;99.90
56428;DHT22;42331;53.578;9.760;2024-01-30T06:27:14;5.60;99.90
56428;DHT22;42331;53.578;9.760;2024-01-30T06:29:45;5.70;99.90
56428;DHT22;42331;53.578;9.760;2024-01-30T06:32:25;5.60;99.90
56428;DHT22;42331;53.578;9.760;2024-01-30T06:34:56;5.70;99.90
56428;DHT22;42331;53.578;9.760;2024-01-30T06:37:36;5.70;99.90
56428;DHT22;42331;53.578;9.760;2024-01-30T06:40:56;5.70;99.90
56428;DHT22;42331;53.578;9.760;2024-01-30T06:43:31;5.60;99.90
56428;DHT22;42331;53.578;9.760;2024-01-30T06:46:04;5.60;99.90
56428;DHT22;42331;53.578;9.760;2024-01-30T06:49:05;5.50;99.90
56428;DHT22;42331;53.578;9.760;2024-01-30T06:52:00;5.50;99.90
56428;DHT22;42331;53.578;9.760;2024-01-30T06:54:31;5.50;99.90
56428;DHT22;42331;53.578;9.760;2024-01-30T06:57:02;5.50;99.90
56428;DHT22;42331;53.578;9.760;2024-01-30T06:59:35;5.50;99.90
56428;DHT22;42331;53.578;9.760;2024-01-30T07:02:09;5.40;99.90
56428;DHT22;42331;53.578;9.760;2024-01-30T07:07:53;5.40;99.90
56428;DHT22;42331;53.578;9.760;2024-01-30T07:10:24;5.40;99.90
56428;DHT22;42331;53.578;9.760;2024-01-30T07:13:03;5.40;99.90
56428;DHT22;42331;53.578;9.760;2024-01-30T07:16:10;5.40;99.90
56428;DHT22;42331;53.578;9.760;2024-01-30T07:18:41;5.40;99.90
56428;DHT22;42331;53.578;9.760;2024-01-30T07:21:12;5.40;99.90
56428;DHT22;42331;53.578;9.760;2024-01-30T07:23:42;5.40;99.90
56428;DHT22;42331;53.578;9.760;2024-01-30T07:26:13;5.40;99.90
56428;DHT22;42331;53.578;9.760;2024-01-30T07:28:44;5.30;99.90
56428;DHT22;42331;53.578;9.760;2024-01-30T07:31:15;5.40;99.90
56428;DHT22;42331;53.578;9.760;2024-01-30T07:33:46;5.30;99.90
56428;DHT22;42331;53.578;9.760;2024-01-30T07:36:16;5.30;99.90
56428;DHT22;42331;53.578;9.760;2024-01-30T07:38:47;5.40;99.90
56428;DHT22;42331;53.578;9.760;2024-01-30T07:41:17;5.40;99.90
56428;DHT22;42331;53.578;9.760;2024-01-30T07:43:48;5.40;99.90
56428;DHT22;42331;53.578;9.760;2024-01-30T07:46:19;5.40;99.90
56428;DHT22;42331;53.578;9.760;2024-01-30T07:48:52;5.50;99.90
56428;DHT22;42331;53.578;9.760;2024-01-30T07:51:24;5.60;99.90
56428;DHT22;42331;53.578;9.760;2024-01-30T07:53:54;5.60;99.90
56428;DHT22;42331;53.578;9.760;2024-01-30T07:56:25;5.70;99.90
56428;DHT22;42331;53.578;9.760;2024-01-30T07:58:56;5.70;99.90
56428;DHT22;42331;53.578;9.760;2024-01-30T08:01:27;5.80;99.90
56428;DHT22;42331;53.578;9.760;2024-01-30T08:03:58;5.90;99.90
56428;DHT22;42331;53.578;9.760;2024-01-30T08:06:28;5.90;99.90
56428;DHT22;42331;53.578;9.760;2024-01-30T08:08:59;5.90;99.90
56428;DHT22;42331;53.578;9.760;2024-01-30T08:11:30;6.00;99.90
56428;DHT22;42331;53.578;9.760;2024-01-30T08:14:01;6.10;99.90
56428;DHT22;42331;53.578;9.760;2024-01-30T08:16:32;6.10;99.90
56428;DHT22;42331;53.578;9.760;2024-01-30T08:19:03;6.20;99.90
56428;DHT22;42331;53.578;9.760;2024-01-30T08:21:34;6.20;99.90
56428;DHT22;42331;53.578;9.760;2024-01-30T08:24:07;6.30;99.90
56428;DHT22;42331;53.578;9.760;2024-01-30T08:26:38;6.30;99.90
56428;DHT22;42331;53.578;9.760;2024-01-30T08:29:09;6.40;99.90
56428;DHT22;42331;53.578;9.760;2024-01-30T08:31:39;6.40;99.90
56428;DHT22;42331;53.578;9.760;2024-01-30T08:34:10;6.50;99.90
56428;DHT22;42331;53.578;9.760;2024-01-30T08:36:40;6.50;99.90
56428;DHT22;42331;53.578;9.760;2024-01-30T08:39:11;6.50;99.90
56428;DHT22;42331;53.578;9.760;2024-01-30T08:41:42;6.60;99.90
56428;DHT22;42331;53.578;9.760;2024-01-30T08:44:12;6.60;99.90
56428;DHT22;42331;53.578;9.760;2024-01-30T08:46:44;6.60;99.90
56428;DHT22;42331;53.578;9.760;2024-01-30T08:49:16;6.60;99.90
56428;DHT22;42331;53.578;9.760;2024-01-30T08:51:47;6.70;99.90
56428;DHT22;42331;53.578;9.760;2024-01-30T08:54:18;6.80;99.90
56428;DHT22;42331;53.578;9.760;2024-01-30T08:56:48;6.90;99.90
56428;DHT22;42331;53.578;9.760;2024-01-30T08:59:19;7.00;99.90
56428;DHT22;42331;53.578;9.760;2024-01-30T09:01:50;7.10;99.90
56428;DHT22;42331;53.578;9.760;2024-01-30T09:04:24;7.20;99.90
56428;DHT22;42331;53.578;9.760;2024-01-30T09:06:54;7.20;99.90
56428;DHT22;42331;53.578;9.760;2024-01-30T09:09:25;7.30;99.90
56428;DHT22;42331;53.578;9.760;2024-01-30T09:11:56;7.30;99.90
56428;DHT22;42331;53.578;9.760;2024-01-30T09:14:28;7.30;99.90
56428;DHT22;42331;53.578;9.760;2024-01-30T09:16:59;7.40;99.90
56428;DHT22;42331;53.578;9.760;2024-01-30T09:19:30;7.40;99.90
56428;DHT22;42331;53.578;9.760;2024-01-30T09:22:01;7.40;99.90
56428;DHT22;42331;53.578;9.760;2024-01-30T09:24:31;7.50;99.90
56428;DHT22;42331;53.578;9.760;2024-01-30T09:27:02;7.50;99.90
56428;DHT22;42331;53.578;9.760;2024-01-30T09:29:33;7.50;99.90
56428;DHT22;42331;53.578;9.760;2024-01-30T09:32:06;7.50;99.90
56428;DHT22;42331;53.578;9.760;2024-01-30T09:34:37;7.50;99.90
56428;DHT22;42331;53.578;9.760;2024-01-30T09:37:09;7.50;99.90
56428;DHT22;42331;53.578;9.760;2024-01-30T09:39:40;7.50;99.90
56428;DHT22;42331;53.578;9.760;2024-01-30T09:42:27;7.50;99.90
56428;DHT22;42331;53.578;9.760;2024-01-30T09:44:59;7.70;99.90
56428;DHT22;42331;53.578;9.760;2024-01-30T09:47:40;7.80;99.90
56428;DHT22;42331;53.578;9.760;2024-01-30T09:50:14;7.90;99.90
56428;DHT22;42331;53.578;9.760;2024-01-30T09:52:46;7.90;99.90
56428;DHT22;42331;53.578;9.760;2024-01-30T09:55:17;8.00;99.90
56428;DHT22;42331;53.578;9.760;2024-01-30T09:57:47;8.20;99.90
56428;DHT22;42331;53.578;9.760;2024-01-30T10:00:18;8.40;99.90
56428;DHT22;42331;53.578;9.760;2024-01-30T10:02:49;8.40;99.90
56428;DHT22;42331;53.578;9.760;2024-01-30T10:05:21;8.40;99.90
56428;DHT22;42331;53.578;9.760;2024-01-30T10:07:56;8.40;99.90
56428;DHT22;42331;53.578;9.760;2024-01-30T10:10:27;8.40;99.90
56428;DHT22;42331;53.578;9.760;2024-01-30T10:12:58;8.40;99.90
56428;DHT22;42331;53.578;9.760;2024-01-30T10:15:28;8.40;99.90
56428;DHT22;42331;53.578;9.760;2024-01-30T10:17:59;8.40;99.90
56428;DHT22;42331;53.578;9.760;2024-01-30T10:20:30;8.40;99.90
56428;DHT22;42331;53.578;9.760;2024-01-30T10:23:01;8.40;99.90
56428;DHT22;42331;53.578;9.760;2024-01-30T10:25:32;8.50;99.90
56428;DHT22;42331;53.578;9.760;2024-01-30T10:28:03;8.50;99.90
56428;DHT22;42331;53.578;9.760;2024-01-30T10:30:33;8.50;99.90
56428;DHT22;42331;53.578;9.760;2024-01-30T10:33:04;8.60;99.90
56428;DHT22;42331;53.578;9.760;2024-01-30T10:35:35;8.50;99.90
56428;DHT22;42331;53.578;9.760;2024-01-30T10:38:07;8.60;99.90
56428;DHT22;42331;53.578;9.760;2024-01-30T10:40:42;8.70;99.90
56428;DHT22;42331;53.578;9.760;2024-01-30T10:43:15;8.70;99.90
56428;DHT22;42331;53.578;9.760;2024-01-30T10:45:49;8.70;99.90
56428;DHT22;42331;53.578;9.760;2024-01-30T10:48:27;8.80;99.90
56428;DHT22;42331;53.578;9.760;2024-01-30T10:51:00;8.90;99.90
56428;DHT22;42331;53.578;9.760;2024-01-30T10:53:33;9.00;99.90
56428;DHT22;42331;53.578;9.760;2024-01-30T10:56:04;9.00;99.90
56428;DHT22;42331;53.578;9.760;2024-01-30T10:58:36;9.00;99.90
56428;DHT22;42331;53.578;9.760;2024-01-30T11:01:07;9.00;99.90
56428;DHT22;42331;53.578;9.760;2024-01-30T11:03:38;9.00;99.90
56428;DHT22;42331;53.578;9.760;2024-01-30T11:06:11;9.00;99.90
56428;DHT22;42331;53.578;9.760;2024-01-30T11:08:45;9.10;99.90
56428;DHT22;42331;53.578;9.760;2024-01-30T11:11:16;9.10;99.90
56428;DHT22;42331;53.578;9.760;2024-01-30T11:13:53;9.10;99.90
56428;DHT22;42331;53.578;9.760;2024-01-30T11:16:40;9.10;99.90
56428;DHT22;42331;53.578;9.760;2024-01-30T11:19:11;9.20;99.90
56428;DHT22;42331;53.578;9.760;2024-01-30T11:22:02;9.10;99.90
56428;DHT22;42331;53.578;9.760;2024-01-30T11:24:42;9.10;99.90
56428;DHT22;42331;53.578;9.760;2024-01-30T11:27:15;9.10;99.90
56428;DHT22;42331;53.578;9.760;2024-01-30T11:29:50;9.10;99.90
56428;DHT22;42331;53.578;9.760;2024-01-30T11:32:23;9.10;99.90
56428;DHT22;42331;53.578;9.760;2024-01-30T11:34:55;9.10;99.90
56428;DHT22;42331;53.578;9.760;2024-01-30T11:37:28;9.10;99.90
56428;DHT22;42331;53.578;9.760;2024-01-30T11:40:07;9.10;99.90
56428;DHT22;42331;53.578;9.760;2024-01-30T11:42:42;9.00;99.90
56428;DHT22;42331;53.578;9.760;2024-01-30T11:45:14;9.00;99.90
56428;DHT22;42331;53.578;9.760;2024-01-30T11:47:44;9.00;99.90
56428;DHT22;42331;53.578;9.760;2024-01-30T11:50:15;9.00;99.90
56428;DHT22;42331;53.578;9.760;2024-01-30T11:52:47;9.00;99.90
56428;DHT22;42331;53.578;9.760;2024-01-30T11:55:18;9.00;99.90
56428;DHT22;42331;53.578;9.760;2024-01-30T11:57:49;9.00;99.90
56428;DHT22;42331;53.578;9.760;2024-01-30T12:00:19;8.90;99.90
56428;DHT22;42331;53.578;9.760;2024-01-30T12:02:52;8.90;99.90
56428;DHT22;42331;53.578;9.760;2024-01-30T12:05:27;8.90;99.90
56428;DHT22;42331;53.578;9.760;2024-01-30T12:07:58;8.80;99.90
56428;DHT22;42331;53.578;9.760;2024-01-30T12:10:31;8.90;99.90
56428;DHT22;42331;53.578;9.760;2024-01-30T12:13:03;8.90;99.90
56428;DHT22;42331;53.578;9.760;2024-01-30T12:15:34;8.90;99.90
56428;DHT22;42331;53.578;9.760;2024-01-30T12:18:06;8.90;99.90
56428;DHT22;42331;53.578;9.760;2024-01-30T12:20:37;8.90;99.90
56428;DHT22;42331;53.578;9.760;2024-01-30T12:23:07;8.80;99.90
56428;DHT22;42331;53.578;9.760;2024-01-30T12:25:38;8.80;99.90
56428;DHT22;42331;53.578;9.760;2024-01-30T12:28:10;8.90;99.90
56428;DHT22;42331;53.578;9.760;2024-01-30T12:30:42;8.90;99.90
56428;DHT22;42331;53.578;9.760;2024-01-30T12:33:17;8.90;99.90
56428;DHT22;42331;53.578;9.760;2024-01-30T12:35:48;9.00;99.90
56428;DHT22;42331;53.578;9.760;2024-01-30T12:38:19;9.00;99.90
56428;DHT22;42331;53.578;9.760;2024-01-30T12:40:54;9.00;99.90
56428;DHT22;42331;53.578;9.760;2024-01-30T12:43:26;9.10;99.90
56428;DHT22;42331;53.578;9.760;2024-01-30T12:45:56;9.00;99.90
56428;DHT22;42331;53.578;9.760;2024-01-30T12:48:28;9.00;99.90
56428;DHT22;42331;53.578;9.760;2024-01-30T12:51:00;9.00;99.90
56428;DHT22;42331;53.578;9.760;2024-01-30T12:53:31;9.10;99.90
56428;DHT22;42331;53.578;9.760;2024-01-30T12:56:01;9.10;99.90
56428;DHT22;42331;53.578;9.760;2024-01-30T12:58:32;9.10;99.90
56428;DHT22;42331;53.578;9.760;2024-01-30T13:01:03;9.00;99.90
56428;DHT22;42331;53.578;9.760;2024-01-30T13:03:33;9.00;99.90
56428;DHT22;42331;53.578;9.760;2024-01-30T13:06:04;9.00;99.90
56428;DHT22;42331;53.578;9.760;2024-01-30T13:08:35;9.00;99.90
56428;DHT22;42331;53.578;9.760;2024-01-30T13:11:05;9.00;99.90
56428;DHT22;42331;53.578;9.760;2024-01-30T13:13:37;9.00;99.90
56428;DHT22;42331;53.578;9.760;2024-01-30T13:16:08;9.00;99.90
56428;DHT22;42331;53.578;9.760;2024-01-30T13:18:39;9.00;99.90
56428;DHT22;42331;53.578;9.760;2024-01-30T13:21:09;9.00;99.90
56428;DHT22;42331;53.578;9.760;2024-01-30T13:23:40;9.00;99.90
56428;DHT22;42331;53.578;9.760;2024-01-30T13:26:11;9.00;99.90
56428;DHT22;42331;53.578;9.760;2024-01-30T13:28:42;9.00;99.90
56428;DHT22;42331;53.578;9.760;2024-01-30T13:31:14;9.00;99.90
56428;DHT22;42331;53.578;9.760;2024-01-30T13:33:45;9.00;99.90
56428;DHT22;42331;53.578;9.760;2024-01-30T13:36:16;9.00;99.90
56428;DHT22;42331;53.578;9.760;2024-01-30T13:38:47;9.00;99.90
56428;DHT22;42331;53.578;9.760;2024-01-30T13:41:18;9.10;99.90
56428;DHT22;42331;53.578;9.760;2024-01-30T13:43:48;9.10;99.90
56428;DHT22;42331;53.578;9.760;2024-01-30T13:46:19;9.10;99.90
56428;DHT22;42331;53.578;9.760;2024-01-30T13:48:50;9.10;99.90
56428;DHT22;42331;53.578;9.760;2024-01-30T13:51:21;9.10;99.90
56428;DHT22;42331;53.578;9.760;2024-01-30T13:53:52;9.10;99.90
56428;DHT22;42331;53.578;9.760;2024-01-30T13:56:23;9.20;99.90
56428;DHT22;42331;53.578;9.760;2024-01-30T13:58:54;9.20;99.90
56428;DHT22;42331;53.578;9.760;2024-01-30T14:01:26;9.20;99.90
56428;DHT22;42331;53.578;9.760;2024-01-30T14:03:56;9.20;99.90
56428;DHT22;42331;53.578;9.760;2024-01-30T14:06:27;9.20;99.90
56428;DHT22;42331;53.578;9.760;2024-01-30T14:08:58;9.10;99.90
56428;DHT22;42331;53.578;9.760;2024-01-30T14:11:29;9.10;99.90
56428;DHT22;42331;53.578;9.760;2024-01-30T14:13:59;9.10;99.90
56428;DHT22;42331;53.578;9.760;2024-01-30T14:16:30;9.20;99.90
56428;DHT22;42331;53.578;9.760;2024-01-30T14:19:00;9.20;99.90
56428;DHT22;42331;53.578;9.760;2024-01-30T14:21:31;9.20;99.90
56428;DHT22;42331;53.578;9.760;2024-01-30T14:24:02;9.30;99.90
56428;DHT22;42331;53.578;9.760;2024-01-30T14:26:32;9.20;99.90
56428;DHT22;42331;53.578;9.760;2024-01-30T14:29:03;9.30;99.90
56428;DHT22;42331;53.578;9.760;2024-01-30T14:31:34;9.30;99.90
56428;DHT22;42331;53.578;9.760;2024-01-30T14:34:04;9.30;99.90
56428;DHT22;42331;53.578;9.760;2024-01-30T14:36:38;9.30;99.90
56428;DHT22;42331;53.578;9.760;2024-01-30T14:39:09;9.30;99.90
56428;DHT22;42331;53.578;9.760;2024-01-30T14:41:40;9.30;99.90
56428;DHT22;42331;53.578;9.760;2024-01-30T14:44:10;9.30;99.90
56428;DHT22;42331;53.578;9.760;2024-01-30T14:46:41;9.30;99.90
56428;DHT22;42331;53.578;9.760;2024-01-30T14:49:12;9.40;99.90
56428;DHT22;42331;53.578;9.760;2024-01-30T14:51:43;9.40;99.90
56428;DHT22;42331;53.578;9.760;2024-01-30T14:54:13;9.40;99.90
56428;DHT22;42331;53.578;9.760;2024-01-30T14:56:44;9.30;99.90
56428;DHT22;42331;53.578;9.760;2024-01-30T14:59:15;9.40;99.90
56428;DHT22;42331;53.578;9.760;2024-01-30T15:01:46;9.40;99.90
56428;DHT22;42331;53.578;9.760;2024-01-30T15:04:17;9.30;99.90
56428;DHT22;42331;53.578;9.760;2024-01-30T15:06:48;9.30;99.90
56428;DHT22;42331;53.578;9.760;2024-01-30T15:09:19;9.30;99.90
56428;DHT22;42331;53.578;9.760;2024-01-30T15:11:52;9.40;99.90
56428;DHT22;42331;53.578;9.760;2024-01-30T15:14:24;9.30;99.90
56428;DHT22;42331;53.578;9.760;2024-01-30T15:16:55;9.30;99.90
56428;DHT22;42331;53.578;9.760;2024-01-30T15:19:25;9.40;99.90
56428;DHT22;42331;53.578;9.760;2024-01-30T15:21:56;9.30;99.90
56428;DHT22;42331;53.578;9.760;2024-01-30T15:24:26;9.40;99.90
56428;DHT22;42331;53.578;9.760;2024-01-30T15:26:57;9.40;99.90
56428;DHT22;42331;53.578;9.760;2024-01-30T15:29:28;9.30;99.90
56428;DHT22;42331;53.578;9.760;2024-01-30T15:31:58;9.30;99.90
56428;DHT22;42331;53.578;9.760;2024-01-30T15:34:29;9.30;99.90
56428;DHT22;42331;53.578;9.760;2024-01-30T15:37:00;9.30;99.90
56428;DHT22;42331;53.578;9.760;2024-01-30T15:39:30;9.30;99.90
56428;DHT22;42331;53.578;9.760;2024-01-30T15:42:01;9.30;99.90
56428;DHT22;42331;53.578;9.760;2024-01-30T15:44:32;9.20;99.90
56428;DHT22;42331;53.578;9.760;2024-01-30T15:47:03;9.20;99.90
56428;DHT22;42331;53.578;9.760;2024-01-30T15:49:33;9.20;99.90
56428;DHT22;42331;53.578;9.760;2024-01-30T15:52:04;9.20;99.90
56428;DHT22;42331;53.578;9.760;2024-01-30T15:54:35;9.00;99.90
56428;DHT22;42331;53.578;9.760;2024-01-30T15:57:06;9.00;99.90
56428;DHT22;42331;53.578;9.760;2024-01-30T15:59:36;9.00;99.90
56428;DHT22;42331;53.578;9.760;2024-01-30T16:02:07;9.00;99.90
56428;DHT22;42331;53.578;9.760;2024-01-30T16:04:38;9.00;99.90
56428;DHT22;42331;53.578;9.760;2024-01-30T16:07:09;9.10;99.90
56428;DHT22;42331;53.578;9.760;2024-01-30T16:09:39;9.00;99.90
56428;DHT22;42331;53.578;9.760;2024-01-30T16:12:10;9.00;99.90
56428;DHT22;42331;53.578;9.760;2024-01-30T16:14:41;9.00;99.90
56428;DHT22;42331;53.578;9.760;2024-01-30T16:17:11;9.00;99.90
56428;DHT22;42331;53.578;9.760;2024-01-30T16:19:42;8.90;99.90
56428;DHT22;42331;53.578;9.760;2024-01-30T16:22:13;8.90;99.90
56428;DHT22;42331;53.578;9.760;2024-01-30T16:24:44;8.90;99.90
56428;DHT22;42331;53.578;9.760;2024-01-30T16:27:14;9.00;99.90
56428;DHT22;42331;53.578;9.760;2024-01-30T16:29:46;9.10;99.90
56428;DHT22;42331;53.578;9.760;2024-01-30T16:32:16;9.10;99.90
56428;DHT22;42331;53.578;9.760;2024-01-30T16:34:47;9.00;99.90
56428;DHT22;42331;53.578;9.760;2024-01-30T16:37:18;9.00;99.90
56428;DHT22;42331;53.578;9.760;2024-01-30T16:39:49;9.00;99.90
56428;DHT22;42331;53.578;9.760;2024-01-30T16:42:20;9.00;99.90
56428;DHT22;42331;53.578;9.760;2024-01-30T16:44:50;9.00;99.90
56428;DHT22;42331;53.578;9.760;2024-01-30T16:47:21;9.00;99.90
56428;DHT22;42331;53.578;9.760;2024-01-30T16:49:52;9.10;99.90
56428;DHT22;42331;53.578;9.760;2024-01-30T16:52:22;9.10;99.90
56428;DHT22;42331;53.578;9.760;2024-01-30T16:54:54;9.10;99.90
56428;DHT22;42331;53.578;9.760;2024-01-30T16:57:24;9.10;99.90
56428;DHT22;42331;53.578;9.760;2024-01-30T16:59:55;9.10;99.90
56428;DHT22;42331;53.578;9.760;2024-01-30T17:02:26;9.20;99.90
56428;DHT22;42331;53.578;9.760;2024-01-30T17:04:57;9.20;99.90
56428;DHT22;42331;53.578;9.760;2024-01-30T17:07:29;9.20;99.90
56428;DHT22;42331;53.578;9.760;2024-01-30T17:10:04;9.20;99.90
56428;DHT22;42331;53.578;9.760;2024-01-30T17:12:35;9.20;99.90
56428;DHT22;42331;53.578;9.760;2024-01-30T17:15:06;9.20;99.90
56428;DHT22;42331;53.578;9.760;2024-01-30T17:17:37;9.20;99.90
56428;DHT22;42331;53.578;9.760;2024-01-30T17:20:08;9.10;99.90
56428;DHT22;42331;53.578;9.760;2024-01-30T17:22:41;9.10;99.90